sensor_id;sensor_type;location;lat;lon;timestamp;P1;durP1;ratioP1;P2;durP2;ratioP2
52031;SDS011;38044;45.148;39.604;2023-05-08T00:01:31;4.72;;;2.88;;
52031;SDS011;38044;45.148;39.604;2023-05-08T00:03:57;4.72;;;2.55;;
52031;SDS011;38044;45.148;39.604;2023-05-08T00:06:22;3.50;;;2.67;;
52031;SDS011;38044;45.148;39.604;2023-05-08T00:08:48;3.97;;;3.00;;
52031;SDS011;38044;45.148;39.604;2023-05-08T00:11:15;6.60;;;3.08;;
52031;SDS011;38044;45.148;39.604;2023-05-08T00:13:41;3.03;;;2.58;;
52031;SDS011;38044;45.148;39.604;2023-05-08T00:16:07;3.55;;;3.05;;
52031;SDS011;38044;45.148;39.604;2023-05-08T00:18:34;3.53;;;2.38;;
52031;SDS011;38044;45.148;39.604;2023-05-08T00:21:01;8.68;;;2.85;;
52031;SDS011;38044;45.148;39.604;2023-05-08T00:23:27;5.85;;;2.75;;
52031;SDS011;38044;45.148;39.604;2023-05-08T00:25:53;6.63;;;2.80;;
52031;SDS011;38044;45.148;39.604;2023-05-08T00:28:19;4.07;;;2.90;;
52031;SDS011;38044;45.148;39.604;2023-05-08T00:30:45;4.97;;;2.22;;
52031;SDS011;38044;45.148;39.604;2023-05-08T00:33:11;3.35;;;2.75;;
52031;SDS011;38044;45.148;39.604;2023-05-08T00:35:36;4.25;;;2.78;;
52031;SDS011;38044;45.148;39.604;2023-05-08T00:38:02;5.18;;;2.97;;
52031;SDS011;38044;45.148;39.604;2023-05-08T00:40:28;8.73;;;3.45;;
52031;SDS011;38044;45.148;39.604;2023-05-08T00:42:54;5.95;;;3.10;;
52031;SDS011;38044;45.148;39.604;2023-05-08T00:45:20;5.97;;;3.30;;
52031;SDS011;38044;45.148;39.604;2023-05-08T00:47:46;6.03;;;3.13;;
52031;SDS011;38044;45.148;39.604;2023-05-08T00:50:13;5.97;;;3.05;;
52031;SDS011;38044;45.148;39.604;2023-05-08T00:52:39;7.00;;;3.50;;
52031;SDS011;38044;45.148;39.604;2023-05-08T00:55:05;4.68;;;3.17;;
52031;SDS011;38044;45.148;39.604;2023-05-08T00:57:31;7.22;;;3.35;;
52031;SDS011;38044;45.148;39.604;2023-05-08T01:00:02;5.30;;;3.63;;
52031;SDS011;38044;45.148;39.604;2023-05-08T01:02:29;5.20;;;3.78;;
52031;SDS011;38044;45.148;39.604;2023-05-08T01:04:56;5.47;;;3.97;;
52031;SDS011;38044;45.148;39.604;2023-05-08T01:07:22;7.05;;;3.92;;
52031;SDS011;38044;45.148;39.604;2023-05-08T01:09:48;8.40;;;4.43;;
52031;SDS011;38044;45.148;39.604;2023-05-08T01:12:17;4.70;;;3.67;;
52031;SDS011;38044;45.148;39.604;2023-05-08T01:28:59;5.05;;;4.13;;
52031;SDS011;38044;45.148;39.604;2023-05-08T01:35:02;9.23;;;3.97;;
52031;SDS011;38044;45.148;39.604;2023-05-08T01:37:59;8.15;;;3.90;;
52031;SDS011;38044;45.148;39.604;2023-05-08T01:45:37;8.38;;;4.00;;
52031;SDS011;38044;45.148;39.604;2023-05-08T01:48:06;9.02;;;4.00;;
52031;SDS011;38044;45.148;39.604;2023-05-08T01:50:45;7.85;;;4.70;;
52031;SDS011;38044;45.148;39.604;2023-05-08T01:53:29;7.90;;;4.25;;
52031;SDS011;38044;45.148;39.604;2023-05-08T01:56:13;5.75;;;3.88;;
52031;SDS011;38044;45.148;39.604;2023-05-08T01:58:46;7.70;;;4.63;;
52031;SDS011;38044;45.148;39.604;2023-05-08T02:01:17;7.15;;;4.53;;
52031;SDS011;38044;45.148;39.604;2023-05-08T02:03:47;11.07;;;4.32;;
52031;SDS011;38044;45.148;39.604;2023-05-08T02:06:15;6.60;;;4.05;;
52031;SDS011;38044;45.148;39.604;2023-05-08T02:08:44;9.38;;;4.80;;
52031;SDS011;38044;45.148;39.604;2023-05-08T02:11:11;12.13;;;5.70;;
52031;SDS011;38044;45.148;39.604;2023-05-08T02:13:40;9.68;;;5.35;;
52031;SDS011;38044;45.148;39.604;2023-05-08T02:16:09;8.95;;;5.10;;
52031;SDS011;38044;45.148;39.604;2023-05-08T02:18:37;9.57;;;5.57;;
52031;SDS011;38044;45.148;39.604;2023-05-08T02:21:05;10.68;;;6.15;;
52031;SDS011;38044;45.148;39.604;2023-05-08T02:23:33;11.93;;;7.30;;
52031;SDS011;38044;45.148;39.604;2023-05-08T02:26:00;15.77;;;6.97;;
52031;SDS011;38044;45.148;39.604;2023-05-08T02:28:28;14.65;;;6.88;;
52031;SDS011;38044;45.148;39.604;2023-05-08T02:30:55;16.80;;;7.75;;
52031;SDS011;38044;45.148;39.604;2023-05-08T02:33:23;13.45;;;6.88;;
52031;SDS011;38044;45.148;39.604;2023-05-08T02:35:52;14.75;;;7.85;;
52031;SDS011;38044;45.148;39.604;2023-05-08T02:38:24;14.32;;;8.13;;
52031;SDS011;38044;45.148;39.604;2023-05-08T02:40:54;12.38;;;8.45;;
52031;SDS011;38044;45.148;39.604;2023-05-08T02:43:25;10.95;;;8.27;;
52031;SDS011;38044;45.148;39.604;2023-05-08T02:46:39;16.23;;;9.65;;
52031;SDS011;38044;45.148;39.604;2023-05-08T02:51:28;18.20;;;11.15;;
52031;SDS011;38044;45.148;39.604;2023-05-08T02:54:22;14.65;;;9.48;;
52031;SDS011;38044;45.148;39.604;2023-05-08T02:57:22;13.82;;;8.95;;
52031;SDS011;38044;45.148;39.604;2023-05-08T02:59:58;12.35;;;8.55;;
52031;SDS011;38044;45.148;39.604;2023-05-08T03:02:33;12.40;;;8.45;;
52031;SDS011;38044;45.148;39.604;2023-05-08T03:05:25;16.98;;;8.70;;
52031;SDS011;38044;45.148;39.604;2023-05-08T03:07:55;11.25;;;8.32;;
52031;SDS011;38044;45.148;39.604;2023-05-08T03:10:27;12.55;;;8.18;;
52031;SDS011;38044;45.148;39.604;2023-05-08T03:12:57;12.05;;;7.45;;
52031;SDS011;38044;45.148;39.604;2023-05-08T03:15:51;9.80;;;7.05;;
52031;SDS011;38044;45.148;39.604;2023-05-08T03:18:17;12.68;;;7.25;;
52031;SDS011;38044;45.148;39.604;2023-05-08T03:20:46;13.20;;;8.20;;
52031;SDS011;38044;45.148;39.604;2023-05-08T03:23:16;11.52;;;8.02;;
52031;SDS011;38044;45.148;39.604;2023-05-08T03:25:44;11.95;;;8.32;;
52031;SDS011;38044;45.148;39.604;2023-05-08T03:28:10;9.57;;;7.90;;
52031;SDS011;38044;45.148;39.604;2023-05-08T03:30:39;10.18;;;7.93;;
52031;SDS011;38044;45.148;39.604;2023-05-08T03:33:06;11.30;;;8.48;;
52031;SDS011;38044;45.148;39.604;2023-05-08T03:35:36;13.00;;;7.55;;
52031;SDS011;38044;45.148;39.604;2023-05-08T03:38:05;13.60;;;7.30;;
52031;SDS011;38044;45.148;39.604;2023-05-08T03:40:33;11.90;;;8.02;;
52031;SDS011;38044;45.148;39.604;2023-05-08T03:43:05;15.13;;;7.97;;
52031;SDS011;38044;45.148;39.604;2023-05-08T03:45:35;11.80;;;7.00;;
52031;SDS011;38044;45.148;39.604;2023-05-08T03:48:03;10.55;;;7.05;;
52031;SDS011;38044;45.148;39.604;2023-05-08T03:50:31;14.63;;;7.53;;
52031;SDS011;38044;45.148;39.604;2023-05-08T03:52:58;14.02;;;6.20;;
52031;SDS011;38044;45.148;39.604;2023-05-08T03:55:24;10.27;;;6.90;;
52031;SDS011;38044;45.148;39.604;2023-05-08T04:00:31;11.20;;;6.70;;
52031;SDS011;38044;45.148;39.604;2023-05-08T04:08:44;12.15;;;7.25;;
52031;SDS011;38044;45.148;39.604;2023-05-08T04:11:40;11.90;;;7.10;;
52031;SDS011;38044;45.148;39.604;2023-05-08T04:14:23;16.15;;;8.00;;
52031;SDS011;38044;45.148;39.604;2023-05-08T04:16:52;13.38;;;7.60;;
52031;SDS011;38044;45.148;39.604;2023-05-08T04:19:26;14.18;;;7.57;;
52031;SDS011;38044;45.148;39.604;2023-05-08T04:21:58;14.50;;;8.00;;
52031;SDS011;38044;45.148;39.604;2023-05-08T04:24:29;15.53;;;8.40;;
52031;SDS011;38044;45.148;39.604;2023-05-08T04:26:58;19.92;;;8.88;;
52031;SDS011;38044;45.148;39.604;2023-05-08T04:29:25;16.17;;;8.15;;
52031;SDS011;38044;45.148;39.604;2023-05-08T04:31:52;15.23;;;8.70;;
52031;SDS011;38044;45.148;39.604;2023-05-08T04:34:19;14.25;;;7.85;;
52031;SDS011;38044;45.148;39.604;2023-05-08T04:36:45;15.95;;;7.72;;
52031;SDS011;38044;45.148;39.604;2023-05-08T04:39:12;17.23;;;8.23;;
52031;SDS011;38044;45.148;39.604;2023-05-08T04:41:38;12.20;;;7.18;;
52031;SDS011;38044;45.148;39.604;2023-05-08T04:44:04;9.93;;;6.82;;
52031;SDS011;38044;45.148;39.604;2023-05-08T04:46:30;12.60;;;6.88;;
52031;SDS011;38044;45.148;39.604;2023-05-08T04:48:56;8.65;;;6.00;;
52031;SDS011;38044;45.148;39.604;2023-05-08T04:51:22;7.25;;;5.95;;
52031;SDS011;38044;45.148;39.604;2023-05-08T04:53:48;9.50;;;6.05;;
52031;SDS011;38044;45.148;39.604;2023-05-08T04:56:14;7.75;;;6.28;;
52031;SDS011;38044;45.148;39.604;2023-05-08T04:58:39;9.90;;;5.75;;
52031;SDS011;38044;45.148;39.604;2023-05-08T05:01:05;7.72;;;4.88;;
52031;SDS011;38044;45.148;39.604;2023-05-08T05:03:31;7.18;;;5.15;;
52031;SDS011;38044;45.148;39.604;2023-05-08T05:05:57;10.30;;;4.63;;
52031;SDS011;38044;45.148;39.604;2023-05-08T05:08:24;7.50;;;4.25;;
52031;SDS011;38044;45.148;39.604;2023-05-08T05:10:50;7.82;;;5.07;;
52031;SDS011;38044;45.148;39.604;2023-05-08T05:13:16;7.28;;;4.45;;
52031;SDS011;38044;45.148;39.604;2023-05-08T05:15:42;7.07;;;4.65;;
52031;SDS011;38044;45.148;39.604;2023-05-08T05:18:08;10.43;;;5.03;;
52031;SDS011;38044;45.148;39.604;2023-05-08T05:20:34;11.80;;;5.38;;
52031;SDS011;38044;45.148;39.604;2023-05-08T05:23:01;8.45;;;5.35;;
52031;SDS011;38044;45.148;39.604;2023-05-08T05:25:28;10.73;;;5.63;;
52031;SDS011;38044;45.148;39.604;2023-05-08T05:27:54;7.80;;;5.40;;
52031;SDS011;38044;45.148;39.604;2023-05-08T05:30:20;10.85;;;6.00;;
52031;SDS011;38044;45.148;39.604;2023-05-08T05:32:46;10.32;;;5.72;;
52031;SDS011;38044;45.148;39.604;2023-05-08T05:35:12;9.25;;;5.60;;
52031;SDS011;38044;45.148;39.604;2023-05-08T05:37:37;11.48;;;6.72;;
52031;SDS011;38044;45.148;39.604;2023-05-08T05:40:03;13.23;;;6.32;;
52031;SDS011;38044;45.148;39.604;2023-05-08T05:42:30;8.82;;;7.05;;
52031;SDS011;38044;45.148;39.604;2023-05-08T05:44:56;9.50;;;6.38;;
52031;SDS011;38044;45.148;39.604;2023-05-08T05:47:23;17.80;;;7.50;;
52031;SDS011;38044;45.148;39.604;2023-05-08T05:49:49;10.48;;;6.43;;
52031;SDS011;38044;45.148;39.604;2023-05-08T05:52:15;9.90;;;7.10;;
52031;SDS011;38044;45.148;39.604;2023-05-08T05:54:41;11.88;;;5.85;;
52031;SDS011;38044;45.148;39.604;2023-05-08T05:57:06;9.80;;;5.90;;
52031;SDS011;38044;45.148;39.604;2023-05-08T05:59:32;13.02;;;6.43;;
52031;SDS011;38044;45.148;39.604;2023-05-08T06:01:58;10.63;;;5.70;;
52031;SDS011;38044;45.148;39.604;2023-05-08T06:04:24;8.00;;;5.20;;
52031;SDS011;38044;45.148;39.604;2023-05-08T06:06:50;9.52;;;4.88;;
52031;SDS011;38044;45.148;39.604;2023-05-08T06:09:16;7.88;;;5.30;;
52031;SDS011;38044;45.148;39.604;2023-05-08T06:11:42;11.32;;;5.63;;
52031;SDS011;38044;45.148;39.604;2023-05-08T06:14:08;7.32;;;4.53;;
52031;SDS011;38044;45.148;39.604;2023-05-08T06:16:33;8.23;;;4.75;;
52031;SDS011;38044;45.148;39.604;2023-05-08T06:18:59;6.57;;;4.90;;
52031;SDS011;38044;45.148;39.604;2023-05-08T06:21:25;8.45;;;4.88;;
52031;SDS011;38044;45.148;39.604;2023-05-08T06:23:52;6.53;;;4.55;;
52031;SDS011;38044;45.148;39.604;2023-05-08T06:26:19;5.40;;;4.22;;
52031;SDS011;38044;45.148;39.604;2023-05-08T06:28:45;8.85;;;5.05;;
52031;SDS011;38044;45.148;39.604;2023-05-08T06:31:11;8.90;;;5.30;;
52031;SDS011;38044;45.148;39.604;2023-05-08T06:33:37;6.35;;;4.82;;
52031;SDS011;38044;45.148;39.604;2023-05-08T06:36:03;7.80;;;5.30;;
52031;SDS011;38044;45.148;39.604;2023-05-08T06:38:30;8.25;;;5.15;;
52031;SDS011;38044;45.148;39.604;2023-05-08T06:40:56;9.93;;;5.90;;
52031;SDS011;38044;45.148;39.604;2023-05-08T06:43:22;10.98;;;5.72;;
52031;SDS011;38044;45.148;39.604;2023-05-08T06:45:48;6.97;;;5.55;;
52031;SDS011;38044;45.148;39.604;2023-05-08T06:48:13;10.90;;;5.43;;
52031;SDS011;38044;45.148;39.604;2023-05-08T06:50:39;9.00;;;5.75;;
52031;SDS011;38044;45.148;39.604;2023-05-08T06:53:06;10.77;;;5.40;;
52031;SDS011;38044;45.148;39.604;2023-05-08T06:55:32;9.13;;;5.88;;
52031;SDS011;38044;45.148;39.604;2023-05-08T06:57:58;6.63;;;5.50;;
52031;SDS011;38044;45.148;39.604;2023-05-08T07:00:24;7.35;;;5.50;;
52031;SDS011;38044;45.148;39.604;2023-05-08T07:02:50;8.23;;;5.35;;
52031;SDS011;38044;45.148;39.604;2023-05-08T07:05:16;11.50;;;5.65;;
52031;SDS011;38044;45.148;39.604;2023-05-08T07:07:44;9.30;;;5.32;;
52031;SDS011;38044;45.148;39.604;2023-05-08T07:10:10;8.57;;;5.35;;
52031;SDS011;38044;45.148;39.604;2023-05-08T07:12:36;8.88;;;5.80;;
52031;SDS011;38044;45.148;39.604;2023-05-08T07:15:02;8.60;;;5.63;;
52031;SDS011;38044;45.148;39.604;2023-05-08T07:17:28;9.43;;;5.18;;
52031;SDS011;38044;45.148;39.604;2023-05-08T07:19:54;8.27;;;5.65;;
52031;SDS011;38044;45.148;39.604;2023-05-08T07:22:20;10.73;;;5.97;;
52031;SDS011;38044;45.148;39.604;2023-05-08T07:24:46;9.77;;;5.78;;
52031;SDS011;38044;45.148;39.604;2023-05-08T07:27:12;10.20;;;5.50;;
52031;SDS011;38044;45.148;39.604;2023-05-08T07:29:39;7.90;;;5.45;;
52031;SDS011;38044;45.148;39.604;2023-05-08T07:32:08;7.78;;;5.18;;
52031;SDS011;38044;45.148;39.604;2023-05-08T07:34:34;7.82;;;5.30;;
52031;SDS011;38044;45.148;39.604;2023-05-08T07:37:00;11.57;;;5.65;;
52031;SDS011;38044;45.148;39.604;2023-05-08T07:39:25;7.38;;;4.97;;
52031;SDS011;38044;45.148;39.604;2023-05-08T07:41:51;6.32;;;4.63;;
52031;SDS011;38044;45.148;39.604;2023-05-08T07:44:17;7.90;;;5.22;;
52031;SDS011;38044;45.148;39.604;2023-05-08T07:46:43;6.93;;;5.20;;
52031;SDS011;38044;45.148;39.604;2023-05-08T07:49:09;9.90;;;5.53;;
52031;SDS011;38044;45.148;39.604;2023-05-08T07:51:35;7.93;;;4.80;;
52031;SDS011;38044;45.148;39.604;2023-05-08T07:54:01;7.00;;;5.32;;
52031;SDS011;38044;45.148;39.604;2023-05-08T07:56:27;8.15;;;5.30;;
52031;SDS011;38044;45.148;39.604;2023-05-08T07:58:53;10.63;;;5.47;;
52031;SDS011;38044;45.148;39.604;2023-05-08T08:01:18;4.82;;;4.32;;
52031;SDS011;38044;45.148;39.604;2023-05-08T08:03:45;6.55;;;5.20;;
52031;SDS011;38044;45.148;39.604;2023-05-08T08:06:11;10.40;;;4.97;;
52031;SDS011;38044;45.148;39.604;2023-05-08T08:08:37;7.13;;;4.80;;
52031;SDS011;38044;45.148;39.604;2023-05-08T08:11:03;6.95;;;5.00;;
52031;SDS011;38044;45.148;39.604;2023-05-08T08:13:30;5.57;;;4.53;;
52031;SDS011;38044;45.148;39.604;2023-05-08T08:15:57;8.30;;;4.97;;
52031;SDS011;38044;45.148;39.604;2023-05-08T08:18:23;9.85;;;5.00;;
52031;SDS011;38044;45.148;39.604;2023-05-08T08:20:49;9.45;;;4.95;;
52031;SDS011;38044;45.148;39.604;2023-05-08T08:23:15;7.88;;;5.00;;
52031;SDS011;38044;45.148;39.604;2023-05-08T08:25:41;6.70;;;4.90;;
52031;SDS011;38044;45.148;39.604;2023-05-08T08:28:06;8.18;;;5.57;;
52031;SDS011;38044;45.148;39.604;2023-05-08T08:30:32;10.00;;;5.35;;
52031;SDS011;38044;45.148;39.604;2023-05-08T08:32:58;6.78;;;5.30;;
52031;SDS011;38044;45.148;39.604;2023-05-08T08:35:29;5.97;;;4.80;;
52031;SDS011;38044;45.148;39.604;2023-05-08T08:37:55;6.60;;;5.28;;
52031;SDS011;38044;45.148;39.604;2023-05-08T08:40:21;7.65;;;5.18;;
52031;SDS011;38044;45.148;39.604;2023-05-08T08:42:47;10.68;;;5.72;;
52031;SDS011;38044;45.148;39.604;2023-05-08T08:45:13;8.07;;;5.15;;
52031;SDS011;38044;45.148;39.604;2023-05-08T08:47:39;7.35;;;5.28;;
52031;SDS011;38044;45.148;39.604;2023-05-08T08:50:09;8.00;;;5.25;;
52031;SDS011;38044;45.148;39.604;2023-05-08T08:55:03;7.88;;;5.63;;
52031;SDS011;38044;45.148;39.604;2023-05-08T08:57:33;7.75;;;5.40;;
52031;SDS011;38044;45.148;39.604;2023-05-08T09:00:02;6.63;;;4.93;;
52031;SDS011;38044;45.148;39.604;2023-05-08T09:02:30;7.70;;;5.90;;
52031;SDS011;38044;45.148;39.604;2023-05-08T09:04:56;8.40;;;5.85;;
52031;SDS011;38044;45.148;39.604;2023-05-08T09:07:23;7.40;;;5.65;;
52031;SDS011;38044;45.148;39.604;2023-05-08T09:09:51;7.97;;;5.55;;
52031;SDS011;38044;45.148;39.604;2023-05-08T09:12:17;11.30;;;6.68;;
52031;SDS011;38044;45.148;39.604;2023-05-08T09:14:43;10.88;;;5.53;;
52031;SDS011;38044;45.148;39.604;2023-05-08T09:17:09;7.28;;;5.10;;
52031;SDS011;38044;45.148;39.604;2023-05-08T09:19:35;9.23;;;5.50;;
52031;SDS011;38044;45.148;39.604;2023-05-08T09:22:01;7.93;;;5.53;;
52031;SDS011;38044;45.148;39.604;2023-05-08T09:27:23;6.45;;;4.72;;
52031;SDS011;38044;45.148;39.604;2023-05-08T09:29:59;6.47;;;5.28;;
52031;SDS011;38044;45.148;39.604;2023-05-08T09:32:29;8.57;;;5.03;;
52031;SDS011;38044;45.148;39.604;2023-05-08T09:34:56;7.93;;;5.40;;
52031;SDS011;38044;45.148;39.604;2023-05-08T09:37:22;6.75;;;4.85;;
52031;SDS011;38044;45.148;39.604;2023-05-08T09:39:50;7.82;;;5.50;;
52031;SDS011;38044;45.148;39.604;2023-05-08T09:42:16;8.73;;;5.38;;
52031;SDS011;38044;45.148;39.604;2023-05-08T09:52:32;8.85;;;6.00;;
52031;SDS011;38044;45.148;39.604;2023-05-08T09:55:00;8.18;;;5.80;;
52031;SDS011;38044;45.148;39.604;2023-05-08T09:57:31;8.02;;;6.35;;
52031;SDS011;38044;45.148;39.604;2023-05-08T10:00:05;8.75;;;6.32;;
52031;SDS011;38044;45.148;39.604;2023-05-08T10:02:35;12.20;;;6.55;;
52031;SDS011;38044;45.148;39.604;2023-05-08T10:05:02;11.75;;;6.78;;
52031;SDS011;38044;45.148;39.604;2023-05-08T10:07:30;9.10;;;6.20;;
52031;SDS011;38044;45.148;39.604;2023-05-08T10:10:04;7.97;;;5.10;;
52031;SDS011;38044;45.148;39.604;2023-05-08T10:12:31;8.63;;;5.43;;
52031;SDS011;38044;45.148;39.604;2023-05-08T10:14:58;9.15;;;5.75;;
52031;SDS011;38044;45.148;39.604;2023-05-08T10:17:24;12.25;;;6.95;;
52031;SDS011;38044;45.148;39.604;2023-05-08T10:20:04;8.55;;;5.80;;
52031;SDS011;38044;45.148;39.604;2023-05-08T10:22:35;9.32;;;5.88;;
52031;SDS011;38044;45.148;39.604;2023-05-08T10:25:02;7.80;;;5.78;;
52031;SDS011;38044;45.148;39.604;2023-05-08T10:29:59;6.35;;;4.70;;
52031;SDS011;38044;45.148;39.604;2023-05-08T10:32:30;8.30;;;5.25;;
52031;SDS011;38044;45.148;39.604;2023-05-08T10:35:02;8.80;;;4.82;;
52031;SDS011;38044;45.148;39.604;2023-05-08T10:37:31;5.97;;;4.50;;
52031;SDS011;38044;45.148;39.604;2023-05-08T10:40:00;9.13;;;5.20;;
52031;SDS011;38044;45.148;39.604;2023-05-08T10:42:28;7.63;;;5.65;;
52031;SDS011;38044;45.148;39.604;2023-05-08T10:44:53;11.73;;;5.88;;
52031;SDS011;38044;45.148;39.604;2023-05-08T10:50:25;7.10;;;5.45;;
52031;SDS011;38044;45.148;39.604;2023-05-08T10:53:10;10.00;;;4.78;;
52031;SDS011;38044;45.148;39.604;2023-05-08T10:55:46;7.40;;;5.07;;
52031;SDS011;38044;45.148;39.604;2023-05-08T10:58:36;8.57;;;5.15;;
52031;SDS011;38044;45.148;39.604;2023-05-08T11:03:37;8.00;;;5.00;;
52031;SDS011;38044;45.148;39.604;2023-05-08T11:06:05;9.85;;;5.93;;
52031;SDS011;38044;45.148;39.604;2023-05-08T11:08:31;8.13;;;5.72;;
52031;SDS011;38044;45.148;39.604;2023-05-08T11:11:06;8.00;;;6.47;;
52031;SDS011;38044;45.148;39.604;2023-05-08T11:13:47;7.25;;;6.18;;
52031;SDS011;38044;45.148;39.604;2023-05-08T11:16:17;10.15;;;6.45;;
52031;SDS011;38044;45.148;39.604;2023-05-08T11:19:19;5.97;;;4.90;;
52031;SDS011;38044;45.148;39.604;2023-05-08T11:24:54;6.10;;;5.07;;
52031;SDS011;38044;45.148;39.604;2023-05-08T11:27:31;9.85;;;5.68;;
52031;SDS011;38044;45.148;39.604;2023-05-08T11:32:55;5.88;;;4.85;;
52031;SDS011;38044;45.148;39.604;2023-05-08T11:35:39;8.38;;;5.57;;
52031;SDS011;38044;45.148;39.604;2023-05-08T11:38:16;7.13;;;5.28;;
52031;SDS011;38044;45.148;39.604;2023-05-08T11:40:44;6.00;;;5.13;;
52031;SDS011;38044;45.148;39.604;2023-05-08T11:45:51;5.93;;;4.00;;
52031;SDS011;38044;45.148;39.604;2023-05-08T11:48:18;5.65;;;3.75;;
52031;SDS011;38044;45.148;39.604;2023-05-08T11:50:45;4.13;;;3.72;;
52031;SDS011;38044;45.148;39.604;2023-05-08T11:53:11;4.53;;;3.60;;
52031;SDS011;38044;45.148;39.604;2023-05-08T11:55:37;5.45;;;3.60;;
52031;SDS011;38044;45.148;39.604;2023-05-08T11:58:14;5.68;;;3.85;;
52031;SDS011;38044;45.148;39.604;2023-05-08T12:00:41;4.22;;;3.35;;
52031;SDS011;38044;45.148;39.604;2023-05-08T12:03:11;5.22;;;3.55;;
52031;SDS011;38044;45.148;39.604;2023-05-08T12:05:38;4.60;;;3.83;;
52031;SDS011;38044;45.148;39.604;2023-05-08T12:08:05;4.13;;;3.72;;
52031;SDS011;38044;45.148;39.604;2023-05-08T12:10:31;4.40;;;4.00;;
52031;SDS011;38044;45.148;39.604;2023-05-08T12:13:13;5.07;;;3.90;;
52031;SDS011;38044;45.148;39.604;2023-05-08T12:15:41;4.60;;;3.28;;
52031;SDS011;38044;45.148;39.604;2023-05-08T12:18:07;4.50;;;3.58;;
52031;SDS011;38044;45.148;39.604;2023-05-08T12:20:32;4.97;;;3.30;;
52031;SDS011;38044;45.148;39.604;2023-05-08T12:22:58;4.80;;;3.58;;
52031;SDS011;38044;45.148;39.604;2023-05-08T12:25:27;4.30;;;3.90;;
52031;SDS011;38044;45.148;39.604;2023-05-08T12:27:53;4.22;;;3.83;;
52031;SDS011;38044;45.148;39.604;2023-05-08T12:30:19;4.10;;;3.63;;
52031;SDS011;38044;45.148;39.604;2023-05-08T12:32:45;5.75;;;4.00;;
52031;SDS011;38044;45.148;39.604;2023-05-08T12:35:12;4.57;;;4.10;;
52031;SDS011;38044;45.148;39.604;2023-05-08T12:37:39;5.50;;;4.68;;
52031;SDS011;38044;45.148;39.604;2023-05-08T12:40:05;5.50;;;4.75;;
52031;SDS011;38044;45.148;39.604;2023-05-08T12:45:08;6.13;;;5.53;;
52031;SDS011;38044;45.148;39.604;2023-05-08T12:47:43;8.10;;;6.20;;
52031;SDS011;38044;45.148;39.604;2023-05-08T12:50:10;7.45;;;6.65;;
52031;SDS011;38044;45.148;39.604;2023-05-08T12:52:39;8.20;;;5.45;;
52031;SDS011;38044;45.148;39.604;2023-05-08T12:55:05;9.23;;;5.43;;
52031;SDS011;38044;45.148;39.604;2023-05-08T13:00:34;6.40;;;5.00;;
52031;SDS011;38044;45.148;39.604;2023-05-08T13:03:04;6.65;;;5.13;;
52031;SDS011;38044;45.148;39.604;2023-05-08T13:05:32;8.25;;;5.43;;
52031;SDS011;38044;45.148;39.604;2023-05-08T13:08:00;8.85;;;5.63;;
52031;SDS011;38044;45.148;39.604;2023-05-08T13:13:13;7.68;;;5.57;;
52031;SDS011;38044;45.148;39.604;2023-05-08T13:15:40;5.72;;;5.00;;
52031;SDS011;38044;45.148;39.604;2023-05-08T13:18:06;11.63;;;5.70;;
52031;SDS011;38044;45.148;39.604;2023-05-08T13:20:33;8.13;;;6.05;;
52031;SDS011;38044;45.148;39.604;2023-05-08T13:22:59;12.27;;;7.07;;
52031;SDS011;38044;45.148;39.604;2023-05-08T13:25:26;8.20;;;7.40;;
52031;SDS011;38044;45.148;39.604;2023-05-08T13:27:52;9.00;;;7.18;;
52031;SDS011;38044;45.148;39.604;2023-05-08T13:30:18;7.80;;;5.45;;
52031;SDS011;38044;45.148;39.604;2023-05-08T13:32:46;9.30;;;6.75;;
52031;SDS011;38044;45.148;39.604;2023-05-08T13:35:16;7.50;;;6.50;;
52031;SDS011;38044;45.148;39.604;2023-05-08T13:37:42;9.90;;;7.10;;
52031;SDS011;38044;45.148;39.604;2023-05-08T13:40:08;11.60;;;6.97;;
52031;SDS011;38044;45.148;39.604;2023-05-08T13:42:35;10.45;;;6.45;;
52031;SDS011;38044;45.148;39.604;2023-05-08T13:45:02;8.40;;;5.43;;
52031;SDS011;38044;45.148;39.604;2023-05-08T13:47:31;6.38;;;5.35;;
52031;SDS011;38044;45.148;39.604;2023-05-08T13:49:57;8.13;;;5.57;;
52031;SDS011;38044;45.148;39.604;2023-05-08T13:52:23;5.97;;;5.20;;
52031;SDS011;38044;45.148;39.604;2023-05-08T13:54:50;5.35;;;4.47;;
52031;SDS011;38044;45.148;39.604;2023-05-08T13:57:16;4.95;;;4.05;;
52031;SDS011;38044;45.148;39.604;2023-05-08T13:59:41;5.00;;;4.07;;
52031;SDS011;38044;45.148;39.604;2023-05-08T14:02:07;4.90;;;4.18;;
52031;SDS011;38044;45.148;39.604;2023-05-08T14:04:33;6.30;;;4.07;;
52031;SDS011;38044;45.148;39.604;2023-05-08T14:06:59;6.82;;;4.60;;
52031;SDS011;38044;45.148;39.604;2023-05-08T14:09:25;4.10;;;3.58;;
52031;SDS011;38044;45.148;39.604;2023-05-08T14:11:51;3.70;;;3.40;;
52031;SDS011;38044;45.148;39.604;2023-05-08T14:14:16;4.13;;;3.72;;
52031;SDS011;38044;45.148;39.604;2023-05-08T14:16:42;4.88;;;3.65;;
52031;SDS011;38044;45.148;39.604;2023-05-08T14:19:08;3.92;;;3.33;;
52031;SDS011;38044;45.148;39.604;2023-05-08T14:21:34;4.72;;;3.45;;
52031;SDS011;38044;45.148;39.604;2023-05-08T14:24:01;4.53;;;3.70;;
52031;SDS011;38044;45.148;39.604;2023-05-08T14:26:27;5.97;;;3.90;;
52031;SDS011;38044;45.148;39.604;2023-05-08T14:28:52;4.35;;;3.95;;
52031;SDS011;38044;45.148;39.604;2023-05-08T14:31:18;4.78;;;3.90;;
52031;SDS011;38044;45.148;39.604;2023-05-08T14:33:44;4.25;;;3.85;;
52031;SDS011;38044;45.148;39.604;2023-05-08T14:36:10;5.78;;;4.43;;
52031;SDS011;38044;45.148;39.604;2023-05-08T14:38:36;6.20;;;5.00;;
52031;SDS011;38044;45.148;39.604;2023-05-08T14:41:01;8.23;;;5.88;;
52031;SDS011;38044;45.148;39.604;2023-05-08T14:43:27;10.32;;;6.50;;
52031;SDS011;38044;45.148;39.604;2023-05-08T14:45:53;7.68;;;6.53;;
52031;SDS011;38044;45.148;39.604;2023-05-08T14:48:19;9.75;;;6.57;;
52031;SDS011;38044;45.148;39.604;2023-05-08T14:50:45;7.57;;;6.25;;
52031;SDS011;38044;45.148;39.604;2023-05-08T14:53:11;8.93;;;7.00;;
52031;SDS011;38044;45.148;39.604;2023-05-08T14:55:37;9.73;;;7.88;;
52031;SDS011;38044;45.148;39.604;2023-05-08T14:58:03;10.23;;;6.90;;
52031;SDS011;38044;45.148;39.604;2023-05-08T15:00:29;7.38;;;6.18;;
52031;SDS011;38044;45.148;39.604;2023-05-08T15:02:54;8.70;;;5.68;;
52031;SDS011;38044;45.148;39.604;2023-05-08T15:05:20;8.18;;;6.32;;
52031;SDS011;38044;45.148;39.604;2023-05-08T15:07:46;7.97;;;5.85;;
52031;SDS011;38044;45.148;39.604;2023-05-08T15:10:14;11.20;;;7.65;;
52031;SDS011;38044;45.148;39.604;2023-05-08T15:12:40;12.00;;;9.02;;
52031;SDS011;38044;45.148;39.604;2023-05-08T15:15:06;14.23;;;10.23;;
52031;SDS011;38044;45.148;39.604;2023-05-08T15:17:32;13.98;;;10.65;;
52031;SDS011;38044;45.148;39.604;2023-05-08T15:20:01;11.63;;;8.95;;
52031;SDS011;38044;45.148;39.604;2023-05-08T15:22:28;8.55;;;7.55;;
52031;SDS011;38044;45.148;39.604;2023-05-08T15:24:54;7.95;;;6.88;;
52031;SDS011;38044;45.148;39.604;2023-05-08T15:27:26;7.57;;;6.75;;
52031;SDS011;38044;45.148;39.604;2023-05-08T15:29:53;8.68;;;6.63;;
52031;SDS011;38044;45.148;39.604;2023-05-08T15:32:19;12.30;;;11.15;;
52031;SDS011;38044;45.148;39.604;2023-05-08T15:34:45;5.35;;;4.00;;
52031;SDS011;38044;45.148;39.604;2023-05-08T15:37:10;6.90;;;6.30;;
52031;SDS011;38044;45.148;39.604;2023-05-08T15:39:36;5.55;;;5.05;;
52031;SDS011;38044;45.148;39.604;2023-05-08T15:42:02;4.28;;;3.88;;
52031;SDS011;38044;45.148;39.604;2023-05-08T15:44:29;4.05;;;3.65;;
52031;SDS011;38044;45.148;39.604;2023-05-08T15:46:55;3.80;;;3.28;;
52031;SDS011;38044;45.148;39.604;2023-05-08T15:49:21;4.30;;;3.90;;